Details From LEGE - Girona
To LEDA - Lleida
Flight Number -
Tags generated
Created
Modified
Stats Distance 100 nm / 186 km
Max Altitude 10,100 ft / 3,078 m
Waypoints 3
Social Downloads 2
Likes 0
Share VATSIM

Download

Looking for another format? Having issues loading an existing format? Contact us
Advertisement - Login to hide

Notes

Basic altitude profile: - Ascent Rate: 2500ft/min - Ascent Speed: 250kts - Cruise Altitude: 10000ft - Cruise Speed: 420kts - Descent Rate: 1500ft/min - Descent Speed: 250kts Options: - Use NATs: no - Use PACOTS: yes - Use low airways: yes - Use high airways: no

Route

LEGE MAMUK LEDA

ID Type Via Altitude (ft/m) Position (lat/lon) Dist (leg/tot) Name
O LEGE APT - 0 / 0 41.90520 / 2.76213 - / 0 nm Girona
MAMUK FIX - 10,100 / 3,078 41.83676 / 2.07209 31 / 31 nm
O LEDA APT - 0 / 0 41.72821 / 0.53501 69 / 100 nm Lleida

Altitude Profile

Advertisement - Login to hide

LEGE

Details ICAO LEGE (GRO)
Name Girona Airport
Region Spain
Timezone Europe/Madrid (UTC+2.0)
Stats Elevation 469 ft / 143 m (AMSL)
Location 41.905300° 2.762190°
Runways 1
Magnetic Variation 1.141° E

METAR

LEGE 220100Z 04003KT 4000 BR FEW085 12/11 Q1017

Decode

TAF

TAF LEGE 212300Z 2200/2224 VRB03KT 9999 FEW025 TX25/2213Z TN12/2206Z PROB30 TEMPO 2200/2206 3000 BR BKN014 BECMG 2208/2210 18010KT PROB30 TEMPO 2213/2218 18015G25KT FEW050TCU BECMG 2218/2220 VRB04KT

Decode

Departure Runways

ID Width Length Bearing (true/mag) Surface Threshold Overrun Markings Lighting
02 148 ft / 45 m 7,889 ft / 2,404 m 15.72° / 14.58° ASPHALT 0 ft / 0 m 194 ft / 59 m PREC-APP CENTERLINE EDGE THRESHOLD SSALF TDZ REIL-UNI
20 148 ft / 45 m 7,889 ft / 2,404 m 195.73° / 194.59° ASPHALT 518 ft / 158 m 197 ft / 60 m PREC-APP CENTERLINE EDGE THRESHOLD CALVERT-ILS TDZ REIL-OMNI

LEDA

Details ICAO LEDA (ILD)
Name Lleida-Alguaire Airport
Region Spain
Timezone Europe/Madrid (UTC+2.0)
Stats Elevation 1,150 ft / 351 m (AMSL)
Location 41.728100° 0.535278°
Runways 1
Magnetic Variation 0.581° E

METAR

LEDA 220100Z AUTO 07009KT 9999 NCD 14/10 Q1017

Decode

TAF

Not found

Destination Runways

ID Width Length Bearing (true/mag) Surface Threshold Overrun Markings Lighting
13 200 ft / 61 m 8,190 ft / 2,496 m 133.46° / 132.88° ASPHALT 0 ft / 0 m 207 ft / 63 m APP CENTERLINE EDGE THRESHOLD
31 200 ft / 61 m 8,190 ft / 2,496 m 313.48° / 312.90° ASPHALT 289 ft / 88 m 207 ft / 63 m UK-PREC-APP CENTERLINE EDGE THRESHOLD

Popular Alternatives